createdAt,value
2023-04-27T00:02:16.692Z,0.60
2023-04-27T00:04:45.156Z,0.50
2023-04-27T00:07:12.437Z,0.40
2023-04-27T00:09:39.512Z,0.60
2023-04-27T00:12:07.195Z,0.30
2023-04-27T00:14:34.288Z,0.60
2023-04-27T00:17:01.228Z,0.30
2023-04-27T00:19:28.556Z,0.50
2023-04-27T00:21:55.711Z,0.40
2023-04-27T00:24:22.518Z,0.30
2023-04-27T00:26:49.438Z,0.40
2023-04-27T00:29:16.737Z,0.50
2023-04-27T00:31:43.847Z,0.40
2023-04-27T00:34:10.976Z,0.50
2023-04-27T00:36:38.026Z,0.40
2023-04-27T00:39:06.635Z,0.40
2023-04-27T00:41:33.619Z,0.50
2023-04-27T00:44:00.675Z,0.40
2023-04-27T00:46:28.214Z,0.50
2023-04-27T00:48:56.228Z,0.60
2023-04-27T00:51:27.896Z,0.30
2023-04-27T00:53:55.929Z,0.50
2023-04-27T00:56:22.896Z,0.50
2023-04-27T00:59:05.713Z,0.40
2023-04-27T01:08:15.205Z,0.40
2023-04-27T01:10:42.437Z,0.30
2023-04-27T01:13:10.415Z,0.30
2023-04-27T01:15:38.011Z,0.40
2023-04-27T01:18:09.085Z,0.50
2023-04-27T01:20:38.039Z,0.50
2023-04-27T01:23:05.128Z,0.50
2023-04-27T01:25:33.091Z,0.70
2023-04-27T01:28:02.304Z,0.60
2023-04-27T01:30:30.486Z,0.50
2023-04-27T01:32:58.823Z,0.50
2023-04-27T01:35:28.109Z,0.50
2023-04-27T01:37:56.693Z,0.50
2023-04-27T01:40:23.390Z,0.40
2023-04-27T01:42:50.122Z,0.50
2023-04-27T01:45:16.969Z,0.70
2023-04-27T01:47:43.765Z,0.50
2023-04-27T01:50:11.264Z,0.70
2023-04-27T01:52:39.463Z,0.50
2023-04-27T01:55:06.689Z,0.60
2023-04-27T01:57:33.535Z,0.60
2023-04-27T02:00:01.094Z,0.70
2023-04-27T02:02:28.669Z,0.60
2023-04-27T02:04:55.600Z,0.70
2023-04-27T02:07:22.424Z,0.70
2023-04-27T02:09:49.880Z,0.60
2023-04-27T02:12:16.722Z,0.60
2023-04-27T02:14:43.683Z,0.50
2023-04-27T02:17:10.524Z,0.60
2023-04-27T02:19:37.318Z,0.60
2023-04-27T02:22:05.517Z,0.80
2023-04-27T02:24:32.383Z,0.70
2023-04-27T02:27:01.207Z,0.60
2023-04-27T02:29:31.033Z,0.60
2023-04-27T02:31:58.376Z,0.70
2023-04-27T02:34:25.232Z,0.60
2023-04-27T02:36:51.938Z,0.70
2023-04-27T02:39:18.572Z,0.70
2023-04-27T02:41:45.246Z,0.90
2023-04-27T02:44:11.875Z,1.10
2023-04-27T02:46:38.623Z,0.60
2023-04-27T02:49:05.515Z,0.90
2023-04-27T02:51:32.321Z,1.00
2023-04-27T02:53:59.001Z,1.10
2023-04-27T02:56:27.178Z,1.00
2023-04-27T02:58:53.995Z,0.90
2023-04-27T03:01:20.757Z,0.90
2023-04-27T03:03:47.738Z,0.90
2023-04-27T03:06:14.749Z,1.20
2023-04-27T03:08:41.655Z,1.10
2023-04-27T03:11:11.931Z,0.80
2023-04-27T03:13:42.021Z,0.80
2023-04-27T03:16:10.748Z,1.00
2023-04-27T03:18:38.756Z,0.90
2023-04-27T03:21:09.034Z,0.60
2023-04-27T03:23:36.250Z,0.70
2023-04-27T03:26:11.389Z,0.80
2023-04-27T03:28:38.221Z,0.70
2023-04-27T03:31:09.015Z,0.90
2023-04-27T03:33:36.108Z,0.70
2023-04-27T03:36:03.881Z,0.80
2023-04-27T03:38:30.864Z,0.80
2023-04-27T03:40:57.770Z,1.00
2023-04-27T03:43:25.112Z,0.90
2023-04-27T03:45:52.088Z,0.80
2023-04-27T03:48:19.171Z,0.80
2023-04-27T03:50:46.919Z,0.90
2023-04-27T03:53:13.856Z,0.70
2023-04-27T03:55:41.680Z,1.00
2023-04-27T03:58:12.025Z,0.80
2023-04-27T04:00:47.857Z,0.70
2023-04-27T04:03:16.542Z,0.90
2023-04-27T04:05:46.466Z,0.80
2023-04-27T04:08:13.571Z,0.70
2023-04-27T04:10:40.338Z,0.70
2023-04-27T04:13:07.082Z,0.70
2023-04-27T04:15:33.984Z,0.70
2023-04-27T04:18:00.971Z,0.60
2023-04-27T04:20:30.155Z,0.80
2023-04-27T04:22:57.122Z,0.80
2023-04-27T04:25:27.026Z,0.70
2023-04-27T04:27:55.747Z,0.50
2023-04-27T04:30:22.920Z,0.60
2023-04-27T04:32:49.727Z,0.60
2023-04-27T04:35:19.299Z,0.50
2023-04-27T04:37:46.237Z,0.40
2023-04-27T04:40:13.394Z,0.80
2023-04-27T04:42:40.065Z,0.60
2023-04-27T04:45:08.085Z,0.60
2023-04-27T04:47:36.004Z,0.60
2023-04-27T04:50:03.438Z,0.60
2023-04-27T04:52:30.688Z,0.80
2023-04-27T04:54:57.376Z,0.70
2023-04-27T04:57:23.917Z,0.50
2023-04-27T04:59:50.592Z,0.50
2023-04-27T05:02:17.977Z,0.60
2023-04-27T05:04:45.016Z,0.60
2023-04-27T05:07:14.772Z,0.50
2023-04-27T05:09:41.890Z,0.50
2023-04-27T05:12:09.547Z,0.60
2023-04-27T05:14:36.411Z,0.60
2023-04-27T05:17:04.013Z,0.60
2023-04-27T05:19:35.094Z,0.50
2023-04-27T05:22:10.855Z,0.70
2023-04-27T05:24:37.865Z,0.70
2023-04-27T05:27:04.949Z,1.00
2023-04-27T05:29:32.493Z,0.50
2023-04-27T05:32:02.554Z,0.70
2023-04-27T05:34:30.191Z,0.50
2023-04-27T05:37:06.498Z,0.90
2023-04-27T05:39:36.493Z,0.70
2023-04-27T05:42:11.017Z,0.60
2023-04-27T05:44:43.954Z,0.80
2023-04-27T05:47:12.960Z,0.60
2023-04-27T05:49:46.727Z,0.70
2023-04-27T05:52:18.014Z,0.60
2023-04-27T05:54:52.019Z,0.50
2023-04-27T05:57:35.372Z,0.70
2023-04-27T06:00:16.520Z,0.50
2023-04-27T06:02:46.436Z,0.60
2023-04-27T06:05:15.968Z,0.70
2023-04-27T06:07:48.788Z,0.70
2023-04-27T06:10:25.584Z,0.50
2023-04-27T06:12:55.980Z,0.60
2023-04-27T06:15:24.624Z,0.40
2023-04-27T06:18:24.629Z,0.50
2023-04-27T06:20:52.114Z,0.40
2023-04-27T06:23:18.804Z,0.40
2023-04-27T06:25:45.644Z,0.70
2023-04-27T06:28:16.160Z,0.60
2023-04-27T06:30:44.489Z,0.50
2023-04-27T06:33:15.418Z,0.40
2023-04-27T06:36:15.929Z,0.40
2023-04-27T06:38:46.488Z,0.40
2023-04-27T06:41:32.470Z,0.40
2023-04-27T06:44:03.661Z,0.40
2023-04-27T06:46:35.030Z,0.40
2023-04-27T06:49:05.817Z,0.60
2023-04-27T06:51:35.210Z,0.60
2023-04-27T06:54:08.018Z,0.60
2023-04-27T06:56:40.533Z,0.70
2023-04-27T06:59:09.137Z,0.60
2023-04-27T07:02:00.504Z,0.70
2023-04-27T07:04:42.793Z,0.80
2023-04-27T07:07:17.534Z,0.60
2023-04-27T07:09:53.532Z,0.60
2023-04-27T07:12:23.381Z,0.70
2023-04-27T07:14:52.321Z,0.60
2023-04-27T07:17:22.763Z,0.50
2023-04-27T07:26:03.345Z,0.50
2023-04-27T07:28:47.565Z,0.50
2023-04-27T07:31:44.204Z,0.80
2023-04-27T07:34:37.925Z,0.60
